Time;durP1;ratioP1;P1;durP2;ratioP2;P2;SDS_P1;SDS_P2;PMS_P1;PMS_P2;Temp;Humidity;BMP_temperature;BMP_pressure;BME280_temperature;BME280_humidity;BME280_pressure;Samples;Min_cycle;Max_cycle;Signal;HPM_P1;HPM_P2
2023/12/04 00:01:42;;;;;;;0.75;0.70;;;18.20;33.20;19.00;100877.00;;;;5015264;28;20095;-60
2023/12/04 00:04:08;;;;;;;0.85;0.82;;;18.20;33.20;19.00;100873.00;;;;5040270;28;20056;-57
2023/12/04 00:06:34;;;;;;;2.15;0.30;;;18.20;33.20;19.00;100866.00;;;;5015539;28;20538;-56
2023/12/04 00:09:00;;;;;;;1.65;0.82;;;18.20;33.20;19.00;100856.00;;;;5015717;28;20061;-60
2023/12/04 00:11:26;;;;;;;1.38;0.63;;;18.10;33.20;19.00;100849.00;;;;5007597;28;20045;-57
2023/12/04 00:13:52;;;;;;;1.95;0.40;;;18.10;33.20;19.00;100845.00;;;;5015620;28;20446;-57
2023/12/04 00:16:18;;;;;;;0.90;0.50;;;18.10;33.20;19.00;100848.00;;;;5015752;28;20030;-55
2023/12/04 00:18:44;;;;;;;0.63;0.50;;;18.10;33.20;19.00;100847.00;;;;4999319;28;20052;-57
2023/12/04 00:21:10;;;;;;;1.42;0.50;;;18.10;33.20;19.00;100832.00;;;;5016179;28;20120;-58
2023/12/04 00:23:36;;;;;;;0.43;0.30;;;18.10;33.20;19.00;100835.00;;;;5016747;28;20033;-56
2023/12/04 00:26:03;;;;;;;0.32;0.20;;;18.10;33.20;19.00;100837.00;;;;5015227;28;20048;-57
2023/12/04 00:28:28;;;;;;;1.30;0.65;;;18.10;33.20;19.00;100829.00;;;;4982761;28;20033;-42
2023/12/04 00:30:54;;;;;;;0.50;0.40;;;18.10;33.20;19.00;100817.00;;;;5006206;28;20095;-42
2023/12/04 00:33:20;;;;;;;1.48;0.40;;;18.10;33.20;18.90;100826.00;;;;5014770;28;20695;-43
2023/12/04 00:35:46;;;;;;;0.30;0.22;;;18.10;33.20;18.90;100808.00;;;;5031229;28;20139;-42
2023/12/04 00:38:12;;;;;;;0.40;0.32;;;18.10;33.20;18.90;100815.00;;;;5016381;28;20047;-42
2023/12/04 00:40:38;;;;;;;1.95;0.40;;;18.10;33.30;18.90;100805.00;;;;5016079;28;20056;-42
2023/12/04 00:43:04;;;;;;;0.85;0.85;;;18.10;33.30;18.90;100798.00;;;;5015352;28;20055;-42
2023/12/04 00:45:30;;;;;;;0.47;0.47;;;18.10;33.30;18.90;100787.00;;;;5013593;28;20037;-42
2023/12/04 00:47:56;;;;;;;0.60;0.30;;;18.10;33.30;18.90;100780.00;;;;5016316;28;20816;-56
2023/12/04 00:50:22;;;;;;;0.30;0.30;;;18.10;33.30;18.90;100775.00;;;;5016092;28;20037;-55
2023/12/04 00:52:48;;;;;;;0.22;0.20;;;18.10;33.30;18.90;100764.00;;;;5014569;28;20077;-57
2023/12/04 00:55:14;;;;;;;0.50;0.45;;;18.10;33.30;18.90;100765.00;;;;5013709;28;20131;-58
2023/12/04 00:57:40;;;;;;;0.77;0.40;;;18.00;33.30;18.90;100761.00;;;;5016193;28;20041;-57
2023/12/04 01:00:07;;;;;;;0.90;0.20;;;18.10;33.40;18.90;100752.00;;;;5015498;28;20037;-58
2023/12/04 01:02:33;;;;;;;0.98;0.55;;;18.10;33.40;18.90;100748.00;;;;5016080;28;20049;-57
2023/12/04 01:04:59;;;;;;;0.70;0.70;;;18.10;33.40;18.90;100745.00;;;;5014968;28;20485;-52
2023/12/04 01:07:25;;;;;;;0.73;0.30;;;18.10;33.40;18.90;100742.00;;;;5016576;28;20124;-52
2023/12/04 01:09:51;;;;;;;0.47;0.47;;;18.00;33.30;18.90;100738.00;;;;5015306;28;20042;-57
2023/12/04 01:12:17;;;;;;;0.40;0.20;;;18.10;33.40;18.90;100731.00;;;;5015573;28;20116;-55
2023/12/04 01:14:43;;;;;;;0.50;0.20;;;18.00;33.30;18.90;100723.00;;;;5015536;28;20068;-56
2023/12/04 01:17:09;;;;;;;0.90;0.20;;;18.00;33.30;18.90;100712.00;;;;4999631;28;20040;-57
2023/12/04 01:19:35;;;;;;;0.68;0.35;;;18.00;33.30;18.90;100706.00;;;;5015016;28;20034;-55
2023/12/04 01:22:01;;;;;;;0.55;0.30;;;18.00;33.30;18.90;100704.00;;;;5031499;28;20041;-53
2023/12/04 01:24:27;;;;;;;1.83;0.17;;;18.00;33.30;18.90;100701.00;;;;5015413;28;20045;-58
2023/12/04 01:26:53;;;;;;;0.22;0.22;;;18.00;33.30;18.90;100694.00;;;;4998176;28;20041;-54
2023/12/04 01:29:19;;;;;;;0.30;0.30;;;18.00;33.30;18.90;100691.00;;;;5029707;28;20049;-56
2023/12/04 01:31:46;;;;;;;0.70;0.20;;;18.00;33.30;18.90;100671.00;;;;5005988;28;20514;-55
2023/12/04 01:34:12;;;;;;;0.25;0.20;;;18.00;33.30;18.90;100672.00;;;;5014813;28;20550;-56
2023/12/04 01:36:41;;;;;;;0.40;0.40;;;18.00;33.30;18.90;100676.00;;;;5031367;28;20061;-58
2023/12/04 01:39:08;;;;;;;0.30;0.20;;;18.00;33.30;18.90;100684.00;;;;5021913;28;20037;-57
2023/12/04 01:41:34;;;;;;;0.70;0.22;;;18.00;33.30;18.80;100686.00;;;;5014415;28;20038;-58
2023/12/04 01:44:00;;;;;;;0.65;0.45;;;18.00;33.30;18.80;100689.00;;;;5013420;28;20037;-58
2023/12/04 01:46:26;;;;;;;0.45;0.45;;;18.00;33.30;18.80;100683.00;;;;5014144;28;20026;-56
2023/12/04 01:48:53;;;;;;;0.30;0.25;;;18.00;33.30;18.80;100681.00;;;;4998368;28;20426;-61
2023/12/04 01:51:20;;;;;;;0.30;0.30;;;18.00;33.30;18.80;100669.00;;;;5014454;28;20512;-56
2023/12/04 01:53:47;;;;;;;0.20;0.20;;;18.00;33.30;18.80;100668.00;;;;5014885;28;20050;-55
2023/12/04 01:56:14;;;;;;;0.50;0.30;;;18.00;33.30;18.80;100658.00;;;;5014584;28;20577;-55
2023/12/04 01:58:40;;;;;;;0.30;0.30;;;18.00;33.40;18.80;100652.00;;;;5013952;28;20033;-54
2023/12/04 02:01:07;;;;;;;0.52;0.20;;;18.00;33.40;18.80;100660.00;;;;5014881;28;20045;-54
2023/12/04 02:03:33;;;;;;;2.08;0.47;;;18.00;33.40;18.90;100675.00;;;;5016314;28;20041;-56
2023/12/04 02:06:02;;;;;;;0.30;0.30;;;18.00;33.50;18.80;100670.00;;;;5025733;28;20044;-54
2023/12/04 02:08:29;;;;;;;0.13;0.10;;;18.00;33.50;18.90;100679.00;;;;5010384;28;20501;-59
2023/12/04 02:10:55;;;;;;;0.73;0.10;;;18.00;33.50;18.90;100674.00;;;;5018383;28;20903;-56
2023/12/04 02:13:21;;;;;;;0.30;0.30;;;18.00;33.50;18.90;100664.00;;;;5019942;28;20105;-56
2023/12/04 02:15:51;;;;;;;0.32;0.25;;;18.00;33.50;18.90;100664.00;;;;5017246;28;20029;-60
2023/12/04 02:18:18;;;;;;;3.85;0.93;;;18.00;33.50;18.90;100662.00;;;;5017474;28;20037;-61
2023/12/04 02:20:44;;;;;;;0.73;0.20;;;18.00;33.50;18.90;100670.00;;;;5017156;28;20045;-57
2023/12/04 02:23:10;;;;;;;0.35;0.35;;;18.00;33.50;18.90;100674.00;;;;5014962;28;20440;-56
2023/12/04 02:25:36;;;;;;;0.40;0.30;;;18.00;33.50;18.90;100668.00;;;;5017664;28;20053;-54
2023/12/04 02:28:11;;;;;;;0.30;0.30;;;18.00;33.50;18.90;100660.00;;;;5017194;28;20481;-42
2023/12/04 02:30:38;;;;;;;0.30;0.30;;;18.00;33.50;18.90;100667.00;;;;5017252;28;20026;-42
2023/12/04 02:33:06;;;;;;;0.80;0.20;;;18.00;33.60;18.90;100666.00;;;;5017847;28;20033;-42
2023/12/04 02:35:35;;;;;;;0.68;0.40;;;18.00;33.60;18.90;100662.00;;;;5017061;28;20034;-42
2023/12/04 02:38:02;;;;;;;1.75;0.47;;;18.00;33.60;18.90;100666.00;;;;5017405;28;20045;-42
2023/12/04 02:40:28;;;;;;;0.50;0.20;;;18.00;33.60;18.90;100671.00;;;;5024621;28;20520;-42
2023/12/04 02:42:54;;;;;;;0.55;0.20;;;18.00;33.70;18.90;100670.00;;;;5024396;28;20479;-42
2023/12/04 02:45:20;;;;;;;0.20;0.20;;;18.00;33.70;18.90;100658.00;;;;5017097;28;20117;-42
2023/12/04 02:47:46;;;;;;;0.35;0.20;;;18.00;33.70;18.90;100661.00;;;;5000733;28;20760;-53
2023/12/04 02:50:12;;;;;;;1.27;0.20;;;18.00;33.70;18.80;100655.00;;;;5016999;28;20064;-53
2023/12/04 02:52:38;;;;;;;3.05;0.25;;;18.00;33.70;18.90;100651.00;;;;5017016;28;20108;-57
2023/12/04 02:55:06;;;;;;;0.20;0.20;;;18.00;33.70;18.90;100642.00;;;;5016820;28;20080;-57
2023/12/04 02:57:32;;;;;;;0.60;0.17;;;18.00;33.70;18.90;100637.00;;;;5016310;28;20045;-59
2023/12/04 02:59:58;;;;;;;0.20;0.10;;;18.00;33.70;18.90;100635.00;;;;5000461;28;20045;-58
2023/12/04 03:02:24;;;;;;;0.43;0.43;;;18.00;33.70;18.90;100623.00;;;;5032690;28;20050;-55
2023/12/04 03:04:50;;;;;;;0.32;0.28;;;18.00;33.70;18.90;100620.00;;;;5018335;28;20050;-54
2023/12/04 03:07:19;;;;;;;0.20;0.10;;;18.00;33.70;18.90;100615.00;;;;5015985;28;20048;-59
2023/12/04 03:09:45;;;;;;;0.20;0.10;;;18.00;34.30;18.90;100596.00;;;;5000005;28;20029;-42
2023/12/04 03:12:11;;;;;;;0.20;0.17;;;18.00;33.70;18.90;100592.00;;;;4999771;28;20403;-42
2023/12/04 03:14:37;;;;;;;0.30;0.10;;;18.00;33.70;18.90;100582.00;;;;5016853;28;20044;-43
2023/12/04 03:17:03;;;;;;;0.30;0.30;;;18.00;33.70;18.90;100581.00;;;;5018048;28;20041;-42
2023/12/04 03:19:29;;;;;;;0.35;0.25;;;18.00;33.70;18.90;100574.00;;;;5015800;28;20129;-42
2023/12/04 03:21:55;;;;;;;0.20;0.20;;;18.00;33.70;18.90;100587.00;;;;5016980;28;20747;-41
2023/12/04 03:24:21;;;;;;;0.50;0.20;;;18.00;33.70;18.90;100578.00;;;;5015964;28;20037;-42
2023/12/04 03:26:47;;;;;;;0.47;0.20;;;18.00;33.70;18.90;100579.00;;;;5016553;28;20511;-42
2023/12/04 03:29:13;;;;;;;0.38;0.20;;;18.00;33.60;18.90;100578.00;;;;5016394;28;20030;-42
2023/12/04 03:31:39;;;;;;;1.35;0.20;;;18.00;33.60;18.90;100588.00;;;;5015628;28;20498;-41
2023/12/04 03:34:05;;;;;;;0.25;0.20;;;18.00;33.60;18.90;100580.00;;;;5015768;28;20471;-42
2023/12/04 03:36:31;;;;;;;0.40;0.40;;;18.00;33.70;18.90;100581.00;;;;5031628;28;20046;-42
2023/12/04 03:38:57;;;;;;;0.43;0.20;;;18.00;33.60;18.90;100569.00;;;;5016055;28;20125;-43
2023/12/04 03:41:23;;;;;;;0.32;0.20;;;18.00;33.70;18.90;100574.00;;;;5015344;28;22110;-42
2023/12/04 03:43:49;;;;;;;0.32;0.30;;;18.00;33.70;18.90;100573.00;;;;5016584;28;20466;-44
2023/12/04 03:46:15;;;;;;;0.30;0.10;;;18.00;33.70;18.90;100556.00;;;;5014941;28;20044;-42
2023/12/04 03:48:41;;;;;;;0.30;0.20;;;18.00;33.70;18.90;100564.00;;;;5007299;28;20525;-53
2023/12/04 03:51:07;;;;;;;0.30;0.10;;;18.00;33.70;18.90;100555.00;;;;5015259;28;20041;-53
2023/12/04 03:53:33;;;;;;;1.00;0.40;;;18.00;33.70;18.90;100560.00;;;;4999669;28;20514;-54
2023/12/04 03:56:00;;;;;;;0.28;0.10;;;18.00;33.80;18.90;100565.00;;;;5017139;28;20033;-55
2023/12/04 03:58:25;;;;;;;0.15;0.10;;;18.00;33.80;18.90;100569.00;;;;5016987;28;20076;-57
2023/12/04 04:00:52;;;;;;;0.93;0.30;;;18.00;33.80;18.90;100560.00;;;;5016408;28;20073;-53
2023/12/04 04:03:17;;;;;;;5.20;0.20;;;18.00;33.80;18.90;100560.00;;;;5016357;28;20079;-53
2023/12/04 04:05:43;;;;;;;1.02;0.30;;;18.00;33.80;18.90;100560.00;;;;5014769;28;20778;-56
2023/12/04 04:08:09;;;;;;;0.35;0.32;;;18.00;33.80;18.90;100555.00;;;;5017296;28;20484;-56
2023/12/04 04:10:36;;;;;;;0.38;0.38;;;18.00;33.80;18.90;100555.00;;;;4998823;28;20455;-53
2023/12/04 04:13:02;;;;;;;0.20;0.20;;;18.00;33.80;18.90;100550.00;;;;5016278;28;20069;-57
2023/12/04 04:15:28;;;;;;;0.40;0.10;;;18.00;33.90;18.90;100543.00;;;;5016036;28;20049;-56
2023/12/04 04:17:54;;;;;;;2.33;0.32;;;18.00;33.90;18.90;100553.00;;;;5023411;28;20041;-56
2023/12/04 04:20:20;;;;;;;0.40;0.10;;;18.00;33.90;18.90;100544.00;;;;5016459;28;20108;-51
2023/12/04 04:22:48;;;;;;;0.20;0.20;;;18.00;33.90;18.90;100526.00;;;;5015287;28;20048;-53
2023/12/04 04:25:16;;;;;;;0.10;0.10;;;18.00;34.00;18.90;100513.00;;;;5030914;28;20582;-54
2023/12/04 04:27:42;;;;;;;0.30;0.20;;;18.00;34.00;18.90;100516.00;;;;5014114;28;20056;-53
2023/12/04 04:30:08;;;;;;;0.20;0.20;;;18.00;34.00;18.90;100513.00;;;;5024442;28;20044;-53
2023/12/04 04:32:34;;;;;;;0.22;0.10;;;18.00;34.00;18.90;100503.00;;;;5015930;28;20602;-53
2023/12/04 04:35:01;;;;;;;0.52;0.38;;;18.00;34.00;18.90;100496.00;;;;5014105;28;20033;-52
2023/12/04 04:37:27;;;;;;;1.00;0.20;;;18.00;34.10;18.90;100489.00;;;;5015472;28;20550;-58
2023/12/04 04:39:53;;;;;;;1.02;0.10;;;18.00;34.10;18.90;100479.00;;;;5015481;28;20033;-53
2023/12/04 04:42:19;;;;;;;0.30;0.20;;;18.00;34.10;18.90;100478.00;;;;4998302;28;20046;-55
2023/12/04 04:44:45;;;;;;;1.30;0.20;;;18.00;34.20;18.90;100476.00;;;;5014228;28;20037;-54
2023/12/04 04:47:11;;;;;;;0.88;0.20;;;18.00;34.20;18.90;100487.00;;;;5013713;28;20068;-54
2023/12/04 04:49:37;;;;;;;0.20;0.10;;;18.00;34.20;18.90;100472.00;;;;5015307;28;20144;-55
2023/12/04 04:52:03;;;;;;;0.30;0.10;;;18.00;34.20;18.90;100460.00;;;;5015290;28;20103;-52
2023/12/04 04:54:32;;;;;;;0.20;0.20;;;18.00;35.00;18.90;100467.00;;;;5014381;28;20550;-55
2023/12/04 04:56:58;;;;;;;0.40;0.35;;;18.00;34.30;18.90;100458.00;;;;5015958;28;20045;-56
2023/12/04 04:59:24;;;;;;;0.88;0.25;;;18.00;34.30;18.90;100449.00;;;;5015738;28;20033;-58
2023/12/04 05:01:50;;;;;;;1.35;1.00;;;18.00;34.30;18.90;100452.00;;;;5014333;28;20163;-54
2023/12/04 05:04:16;;;;;;;0.40;0.20;;;18.00;34.30;18.90;100448.00;;;;5015777;28;20036;-60
2023/12/04 05:06:42;;;;;;;1.48;0.10;;;18.00;34.40;18.90;100437.00;;;;5014427;28;20038;-53
2023/12/04 05:09:08;;;;;;;0.90;0.10;;;18.00;34.40;18.90;100435.00;;;;5014086;28;20041;-42
2023/12/04 05:11:34;;;;;;;2.58;1.45;;;18.00;34.40;18.90;100426.00;;;;5013796;28;20026;-42
2023/12/04 05:14:00;;;;;;;2.70;0.10;;;18.00;34.50;18.90;100428.00;;;;5014225;28;20029;-42
2023/12/04 05:16:26;;;;;;;0.17;0.10;;;18.00;34.50;18.90;100427.00;;;;4982295;28;20364;-42
2023/12/04 05:18:52;;;;;;;0.70;0.20;;;18.00;34.60;18.90;100418.00;;;;5015756;28;20045;-42
2023/12/04 05:21:18;;;;;;;0.63;0.30;;;18.00;34.60;18.90;100411.00;;;;5013764;28;20076;-42
2023/12/04 05:23:44;;;;;;;1.00;0.10;;;18.00;34.60;18.90;100403.00;;;;5015006;28;20057;-42
2023/12/04 05:26:10;;;;;;;0.10;0.10;;;18.00;34.70;18.90;100395.00;;;;5014694;28;20037;-42
2023/12/04 05:28:36;;;;;;;0.10;0.10;;;18.00;34.70;18.90;100382.00;;;;5015278;28;20083;-53
2023/12/04 05:31:02;;;;;;;0.28;0.10;;;18.00;34.70;18.90;100378.00;;;;5014466;28;20045;-52
2023/12/04 05:33:28;;;;;;;0.75;0.20;;;18.00;34.80;18.90;100377.00;;;;5014579;28;20026;-53
2023/12/04 05:35:54;;;;;;;0.30;0.10;;;18.00;34.80;18.90;100360.00;;;;5014596;28;20496;-54
2023/12/04 05:38:20;;;;;;;0.30;0.10;;;18.00;34.80;18.90;100352.00;;;;5015815;28;20041;-54
2023/12/04 05:40:46;;;;;;;0.75;0.28;;;18.00;34.80;18.90;100351.00;;;;5018173;28;20038;-54
2023/12/04 05:43:12;;;;;;;0.63;0.20;;;18.00;34.90;18.90;100345.00;;;;5018623;28;20441;-51
2023/12/04 05:45:39;;;;;;;0.35;0.30;;;18.00;34.90;18.90;100342.00;;;;5018942;28;20071;-57
2023/12/04 05:48:05;;;;;;;0.73;0.10;;;18.00;34.90;18.90;100338.00;;;;5018412;28;20164;-42
2023/12/04 05:50:32;;;;;;;2.78;0.57;;;18.00;34.90;18.90;100330.00;;;;5018818;28;20029;-42
2023/12/04 05:52:58;;;;;;;0.95;0.13;;;18.00;35.10;18.90;100319.00;;;;5016929;28;20053;-43
2023/12/04 05:55:24;;;;;;;0.40;0.40;;;18.00;35.00;18.90;100324.00;;;;5017790;28;20126;-42
2023/12/04 05:57:50;;;;;;;0.88;0.30;;;18.00;35.10;18.90;100311.00;;;;5018229;28;20048;-43
2023/12/04 06:00:17;;;;;;;0.30;0.20;;;18.00;35.10;18.90;100302.00;;;;5017833;28;20412;-43
2023/12/04 06:02:43;;;;;;;0.75;0.68;;;18.00;35.10;18.90;100295.00;;;;4969041;28;20065;-43
2023/12/04 06:05:10;;;;;;;0.52;0.25;;;18.00;35.20;18.90;100287.00;;;;5017700;28;20038;-43
2023/12/04 06:07:36;;;;;;;1.50;0.30;;;18.00;35.20;18.90;100281.00;;;;5018933;28;20085;-43
2023/12/04 06:10:06;;;;;;;0.40;0.15;;;18.00;35.20;18.90;100270.00;;;;5017903;28;20116;-43
2023/12/04 06:12:32;;;;;;;0.38;0.30;;;18.00;35.20;18.90;100270.00;;;;5009565;28;20124;-43
2023/12/04 06:14:58;;;;;;;0.40;0.40;;;18.10;35.30;18.90;100271.00;;;;5024519;28;20058;-42
2023/12/04 06:17:25;;;;;;;3.22;0.47;;;18.00;35.30;18.90;100268.00;;;;5017851;28;20095;-43
2023/12/04 06:19:51;;;;;;;0.30;0.20;;;18.00;35.30;18.90;100260.00;;;;5017107;28;20103;-42
2023/12/04 06:22:19;;;;;;;1.10;0.22;;;18.00;35.40;18.90;100254.00;;;;5017378;28;20029;-42
2023/12/04 06:24:46;;;;;;;0.20;0.15;;;18.00;35.40;18.90;100246.00;;;;5016208;28;20042;-42
2023/12/04 06:27:17;;;;;;;0.93;0.40;;;18.00;35.40;18.90;100260.00;;;;5033313;28;20054;-43
2023/12/04 06:29:44;;;;;;;0.57;0.28;;;18.00;35.40;18.90;100243.00;;;;5017589;28;20038;-42
2023/12/04 06:32:12;;;;;;;0.60;0.30;;;18.00;35.50;18.90;100249.00;;;;5024072;28;20036;-42
2023/12/04 06:34:38;;;;;;;0.25;0.22;;;18.00;35.50;18.90;100236.00;;;;5024564;28;20124;-42
2023/12/04 06:37:12;;;;;;;0.20;0.20;;;18.00;35.50;18.90;100245.00;;;;5024028;28;20048;-42
2023/12/04 06:39:39;;;;;;;0.90;0.90;;;18.00;35.60;18.90;100241.00;;;;5000561;28;20026;-43
2023/12/04 06:42:07;;;;;;;0.57;0.40;;;18.00;35.60;18.80;100237.00;;;;5017356;28;20382;-43
2023/12/04 06:44:34;;;;;;;0.85;0.30;;;18.00;35.60;18.90;100237.00;;;;5016567;28;20082;-43
2023/12/04 06:47:04;;;;;;;0.20;0.10;;;18.00;35.60;18.90;100235.00;;;;5016839;28;20018;-43
2023/12/04 06:49:32;;;;;;;0.75;0.73;;;18.00;35.70;18.80;100219.00;;;;5017511;28;20090;-58
2023/12/04 06:52:01;;;;;;;0.25;0.20;;;18.00;35.80;18.80;100222.00;;;;5025302;28;20033;-58
2023/12/04 06:54:27;;;;;;;0.30;0.20;;;18.00;35.90;18.80;100212.00;;;;5017281;28;20735;-57
2023/12/04 06:56:53;;;;;;;0.20;0.20;;;18.00;36.00;18.80;100211.00;;;;5000168;28;20104;-53
2023/12/04 06:59:20;;;;;;;0.80;0.20;;;18.00;36.00;18.80;100201.00;;;;5016914;28;20049;-57
2023/12/04 07:01:46;;;;;;;0.30;0.20;;;18.00;36.10;18.80;100211.00;;;;4997355;28;20549;-53
2023/12/04 07:04:13;;;;;;;0.47;0.20;;;18.00;36.20;18.80;100214.00;;;;5007686;28;20052;-56
2023/12/04 07:06:40;;;;;;;0.50;0.20;;;18.00;36.30;18.80;100213.00;;;;5018449;28;20041;-52
2023/12/04 07:09:09;;;;;;;5.40;0.40;;;18.00;36.30;18.80;100196.00;;;;4998059;28;20036;-57
2023/12/04 07:11:35;;;;;;;0.98;0.40;;;18.00;36.40;18.80;100200.00;;;;5017665;28;20061;-55
2023/12/04 07:14:01;;;;;;;0.80;0.20;;;18.00;36.40;18.80;100198.00;;;;5014828;28;20718;-55
2023/12/04 07:16:27;;;;;;;3.70;0.30;;;18.00;36.50;18.80;100183.00;;;;5016530;28;20037;-53
2023/12/04 07:18:54;;;;;;;6.10;0.45;;;18.00;36.50;18.80;100188.00;;;;5015689;28;20086;-52
2023/12/04 07:21:20;;;;;;;2.03;0.30;;;18.00;36.60;18.80;100181.00;;;;5015873;28;20067;-56
2023/12/04 07:23:46;;;;;;;4.13;0.47;;;18.00;36.60;18.80;100178.00;;;;4999680;28;20112;-54
2023/12/04 07:26:12;;;;;;;2.13;0.40;;;17.90;36.60;18.80;100176.00;;;;5018092;28;20041;-55
2023/12/04 07:28:38;;;;;;;2.13;0.40;;;17.90;36.70;18.80;100189.00;;;;5017983;28;20038;-43
2023/12/04 07:31:04;;;;;;;4.32;0.63;;;17.90;36.70;18.80;100181.00;;;;5017076;28;20543;-43
2023/12/04 07:33:30;;;;;;;0.85;0.50;;;17.90;36.80;18.80;100174.00;;;;5017189;28;20437;-43
2023/12/04 07:35:56;;;;;;;3.63;0.63;;;17.90;36.80;18.80;100172.00;;;;4999344;28;20065;-42
2023/12/04 07:38:22;;;;;;;1.58;0.52;;;18.00;36.90;18.80;100175.00;;;;5016281;28;20083;-43
2023/12/04 07:40:48;;;;;;;2.15;0.30;;;18.00;37.00;18.80;100170.00;;;;5015418;28;20049;-42
2023/12/04 07:43:14;;;;;;;3.67;0.40;;;17.90;37.00;18.80;100170.00;;;;5017648;28;20037;-43
2023/12/04 07:45:41;;;;;;;2.22;0.20;;;17.90;37.00;18.80;100178.00;;;;5016475;28;20044;-43
2023/12/04 07:48:07;;;;;;;1.67;0.32;;;17.90;37.10;18.80;100175.00;;;;5017477;28;20037;-53
2023/12/04 07:50:33;;;;;;;0.25;0.20;;;17.90;37.10;18.80;100176.00;;;;5016430;28;20402;-55
2023/12/04 07:52:59;;;;;;;4.38;0.40;;;17.90;37.10;18.80;100175.00;;;;5015894;28;20053;-52
2023/12/04 07:55:25;;;;;;;1.98;0.68;;;17.90;37.20;18.80;100165.00;;;;5015652;28;20120;-53
2023/12/04 07:57:51;;;;;;;1.65;0.45;;;17.90;37.30;18.80;100161.00;;;;5016381;28;20423;-54
2023/12/04 08:00:18;;;;;;;1.02;0.20;;;17.90;37.30;18.80;100153.00;;;;5016538;28;20084;-55
2023/12/04 08:02:45;;;;;;;2.47;0.60;;;18.00;37.40;18.80;100157.00;;;;5018463;28;20060;-56
2023/12/04 08:05:12;;;;;;;4.28;0.45;;;17.90;37.40;18.80;100148.00;;;;5016486;28;20077;-50
2023/12/04 08:07:38;;;;;;;1.95;0.20;;;17.90;38.10;18.90;100149.00;;;;5015583;28;20029;-53
2023/12/04 08:10:06;;;;;;;0.57;0.20;;;18.00;37.60;18.90;100154.00;;;;5017535;28;20032;-53
2023/12/04 08:12:33;;;;;;;1.27;0.10;;;18.00;37.60;18.90;100130.00;;;;5014653;28;20033;-54
2023/12/04 08:15:01;;;;;;;3.05;0.43;;;18.00;37.70;19.00;100143.00;;;;5016237;28;20038;-50
2023/12/04 08:17:30;;;;;;;1.20;0.55;;;18.10;37.90;19.10;100141.00;;;;5017363;28;20057;-49
2023/12/04 08:19:56;;;;;;;0.50;0.20;;;18.10;38.10;19.30;100153.00;;;;4998352;28;20390;-49
2023/12/04 08:22:22;;;;;;;0.57;0.20;;;18.30;38.30;19.50;100146.00;;;;5015878;28;20046;-50
2023/12/04 08:24:48;;;;;;;0.85;0.10;;;18.40;38.40;19.70;100138.00;;;;5015539;28;20478;-51
2023/12/04 08:27:14;;;;;;;3.05;0.25;;;18.50;38.40;19.90;100126.00;;;;5014936;28;20037;-45
2023/12/04 08:29:40;;;;;;;0.90;0.10;;;18.70;38.40;20.10;100119.00;;;;4981308;28;20457;-47
2023/12/04 08:32:06;;;;;;;1.35;0.10;;;18.90;38.40;20.30;100123.00;;;;5014618;28;20052;-46
2023/12/04 08:34:32;;;;;;;2.30;0.10;;;19.00;38.30;20.50;100115.00;;;;5005652;28;20080;-48
2023/12/04 08:36:58;;;;;;;1.33;0.10;;;19.20;38.30;20.70;100101.00;;;;5015298;28;20124;-49
2023/12/04 08:39:24;;;;;;;0.52;0.10;;;19.30;38.20;20.90;100101.00;;;;4998908;28;20049;-50
2023/12/04 08:41:50;;;;;;;2.30;0.10;;;19.50;38.10;21.10;100097.00;;;;5014675;28;20041;-49
2023/12/04 08:44:16;;;;;;;5.90;0.30;;;19.70;38.10;21.20;100090.00;;;;5016305;28;20536;-52
2023/12/04 08:46:44;;;;;;;0.35;0.30;;;19.80;38.00;21.40;100100.00;;;;5015922;28;20487;-49
2023/12/04 08:49:09;;;;;;;0.52;0.10;;;20.00;37.90;21.60;100091.00;;;;5014555;28;20413;-46
2023/12/04 08:51:35;;;;;;;0.30;0.10;;;20.20;37.80;21.80;100085.00;;;;5015383;28;20540;-47
2023/12/04 08:54:02;;;;;;;0.63;0.10;;;20.30;37.70;21.90;100065.00;;;;5013709;28;20060;-50
2023/12/04 08:56:29;;;;;;;0.10;0.05;;;20.50;37.60;22.10;100062.00;;;;5013007;28;20050;-48
2023/12/04 08:58:55;;;;;;;0.30;0.10;;;20.60;37.50;22.20;100066.00;;;;5020588;28;20103;-47
2023/12/04 09:01:22;;;;;;;0.20;0.20;;;20.80;37.30;22.40;100061.00;;;;5014609;28;20090;-49
2023/12/04 09:03:47;;;;;;;1.52;0.20;;;20.90;37.20;22.50;100056.00;;;;5015077;28;20505;-48
2023/12/04 09:06:15;;;;;;;2.00;0.10;;;21.00;37.10;22.60;100057.00;;;;5015994;28;20466;-47
2023/12/04 09:08:42;;;;;;;1.35;0.10;;;21.20;37.10;22.70;100046.00;;;;5015241;28;20049;-47
2023/12/04 09:11:08;;;;;;;0.20;0.20;;;21.30;37.60;22.80;100054.00;;;;4997876;28;20491;-53
2023/12/04 09:13:34;;;;;;;0.30;0.10;;;21.40;37.00;22.80;100040.00;;;;5009170;28;21787;-49
2023/12/04 09:16:00;;;;;;;0.10;0.10;;;21.50;37.10;22.90;100038.00;;;;5018206;28;20029;-49
2023/12/04 09:18:26;;;;;;;0.55;0.10;;;21.60;37.10;22.90;100048.00;;;;5018940;28;20049;-52
2023/12/04 09:20:52;;;;;;;0.70;0.08;;;21.60;37.00;23.00;100040.00;;;;5019497;28;20114;-54
2023/12/04 09:23:18;;;;;;;0.70;0.30;;;21.70;37.00;23.00;100029.00;;;;5017385;28;20037;-50
2023/12/04 09:25:44;;;;;;;0.88;0.10;;;21.80;37.10;23.00;100029.00;;;;5017648;28;20029;-51
2023/12/04 09:28:10;;;;;;;0.30;0.20;;;21.90;37.00;23.10;100020.00;;;;5019319;28;20034;-49
2023/12/04 09:30:37;;;;;;;0.40;0.10;;;21.90;36.90;23.10;100024.00;;;;5020160;28;20034;-50
2023/12/04 09:33:03;;;;;;;0.30;0.10;;;22.00;36.90;23.20;100012.00;;;;5018720;28;20038;-47
2023/12/04 09:35:29;;;;;;;0.38;0.00;;;22.00;36.90;23.20;100005.00;;;;5018330;28;20048;-50
2023/12/04 09:37:56;;;;;;;0.43;0.10;;;22.00;36.80;23.20;99997.00;;;;5019030;28;20042;-50
2023/12/04 09:40:23;;;;;;;0.20;0.10;;;22.10;36.90;23.30;99994.00;;;;5019455;28;20034;-50
2023/12/04 09:42:49;;;;;;;0.38;0.00;;;22.10;36.80;23.30;99997.00;;;;5018105;28;20526;-49
2023/12/04 09:45:15;;;;;;;0.22;0.22;;;22.10;36.70;23.40;99997.00;;;;5003500;28;20038;-48
2023/12/04 09:47:42;;;;;;;0.22;0.00;;;22.20;36.70;23.40;99984.00;;;;5018709;28;20042;-47
2023/12/04 09:50:10;;;;;;;0.10;0.00;;;22.30;36.70;23.40;99993.00;;;;5018662;28;20030;-49
2023/12/04 09:52:36;;;;;;;0.00;0.00;;;22.30;36.60;23.50;99987.00;;;;5017829;28;20538;-50
2023/12/04 09:55:20;;;;;;;0.95;0.00;;;22.30;36.60;23.60;99970.00;;;;5034005;28;20366;-49
2023/12/04 09:57:48;;;;;;;0.10;0.00;;;22.40;36.60;23.60;99966.00;;;;5018976;28;20087;-51
2023/12/04 10:00:16;;;;;;;0.00;0.00;;;22.40;36.50;23.60;99967.00;;;;5018154;28;20037;-48
2023/12/04 10:02:42;;;;;;;1.00;0.00;;;22.50;36.50;23.70;99964.00;;;;5019064;28;20040;-49
2023/12/04 10:05:09;;;;;;;0.00;0.00;;;22.60;36.50;23.70;99958.00;;;;5018409;28;20132;-49
2023/12/04 10:07:36;;;;;;;0.00;0.00;;;22.60;36.40;23.80;99944.00;;;;5017453;28;20045;-49
2023/12/04 10:10:07;;;;;;;0.03;0.00;;;22.70;36.40;23.80;99947.00;;;;5017727;28;20076;-49
2023/12/04 10:12:35;;;;;;;0.47;0.00;;;22.70;36.30;23.80;99942.00;;;;5018787;28;20042;-47
2023/12/04 10:15:06;;;;;;;1.90;0.00;;;22.70;36.30;23.90;99939.00;;;;5006533;28;20045;-46
2023/12/04 10:17:43;;;;;;;0.73;0.00;;;22.70;36.30;23.90;99930.00;;;;5019698;28;20041;-47
2023/12/04 10:20:19;;;;;;;0.00;0.00;;;22.80;36.20;24.00;99925.00;;;;5018255;28;20348;-46
2023/12/04 10:23:01;;;;;;;0.55;0.00;;;22.80;36.20;24.00;99917.00;;;;5033434;28;20048;-46
2023/12/04 10:25:29;;;;;;;3.83;0.00;;;22.90;36.20;24.00;99912.00;;;;5016539;28;20168;-46
2023/12/04 10:28:12;;;;;;;0.00;0.00;;;22.90;36.20;24.10;99906.00;;;;5017659;28;20038;-48
2023/12/04 10:30:38;;;;;;;0.00;0.00;;;23.00;36.20;24.10;99897.00;;;;5018127;28;20099;-50
2023/12/04 10:33:07;;;;;;;0.35;0.00;;;23.00;36.10;24.10;99910.00;;;;5017256;28;20040;-52
2023/12/04 10:35:38;;;;;;;0.10;0.00;;;23.00;36.10;24.20;99907.00;;;;5017360;28;20106;-49
2023/12/04 10:38:06;;;;;;;0.00;0.00;;;23.10;36.10;24.20;99889.00;;;;5018735;28;20041;-49
2023/12/04 10:40:35;;;;;;;0.10;0.00;;;23.10;36.20;24.20;99895.00;;;;5017107;28;20088;-49
2023/12/04 10:43:15;;;;;;;2.40;0.00;;;23.10;36.10;24.30;99895.00;;;;5015396;28;20065;-51
2023/12/04 10:45:43;;;;;;;0.30;0.10;;;23.20;36.20;24.30;99885.00;;;;5016698;28;20120;-48